sensor_id;sensor_type;location;lat;lon;timestamp;P1;durP1;ratioP1;P2;durP2;ratioP2
15104;SDS011;7653;48.994;9.212;2023-08-06T00:02:23;5.07;;;4.43;;
15104;SDS011;7653;48.994;9.212;2023-08-06T00:04:49;4.50;;;3.83;;
15104;SDS011;7653;48.994;9.212;2023-08-06T00:07:14;4.27;;;3.93;;
15104;SDS011;7653;48.994;9.212;2023-08-06T00:09:40;4.73;;;4.10;;
15104;SDS011;7653;48.994;9.212;2023-08-06T00:12:06;4.70;;;4.13;;
15104;SDS011;7653;48.994;9.212;2023-08-06T00:14:31;4.23;;;3.83;;
15104;SDS011;7653;48.994;9.212;2023-08-06T00:16:57;4.77;;;3.53;;
15104;SDS011;7653;48.994;9.212;2023-08-06T00:19:23;6.30;;;4.17;;
15104;SDS011;7653;48.994;9.212;2023-08-06T00:21:48;6.30;;;4.43;;
15104;SDS011;7653;48.994;9.212;2023-08-06T00:24:14;4.33;;;3.83;;
15104;SDS011;7653;48.994;9.212;2023-08-06T00:26:40;4.17;;;3.77;;
15104;SDS011;7653;48.994;9.212;2023-08-06T00:29:05;4.20;;;3.80;;
15104;SDS011;7653;48.994;9.212;2023-08-06T00:31:31;5.23;;;4.23;;
15104;SDS011;7653;48.994;9.212;2023-08-06T00:33:56;4.03;;;3.63;;
15104;SDS011;7653;48.994;9.212;2023-08-06T00:36:22;7.10;;;3.80;;
15104;SDS011;7653;48.994;9.212;2023-08-06T00:38:47;4.67;;;4.17;;
15104;SDS011;7653;48.994;9.212;2023-08-06T00:41:13;5.73;;;3.80;;
15104;SDS011;7653;48.994;9.212;2023-08-06T00:43:39;4.37;;;3.80;;
15104;SDS011;7653;48.994;9.212;2023-08-06T00:46:05;4.20;;;3.80;;
15104;SDS011;7653;48.994;9.212;2023-08-06T00:48:31;5.10;;;3.73;;
15104;SDS011;7653;48.994;9.212;2023-08-06T00:50:56;5.50;;;4.60;;
15104;SDS011;7653;48.994;9.212;2023-08-06T00:53:22;4.87;;;3.93;;
15104;SDS011;7653;48.994;9.212;2023-08-06T00:55:48;4.47;;;4.07;;
15104;SDS011;7653;48.994;9.212;2023-08-06T00:58:15;4.67;;;4.17;;
15104;SDS011;7653;48.994;9.212;2023-08-06T01:00:41;5.43;;;4.53;;
15104;SDS011;7653;48.994;9.212;2023-08-06T01:03:07;4.87;;;4.27;;
15104;SDS011;7653;48.994;9.212;2023-08-06T01:05:33;6.10;;;4.30;;
15104;SDS011;7653;48.994;9.212;2023-08-06T01:15:56;5.30;;;4.63;;
15104;SDS011;7653;48.994;9.212;2023-08-06T01:18:24;4.67;;;4.17;;
15104;SDS011;7653;48.994;9.212;2023-08-06T01:20:51;4.90;;;4.30;;
15104;SDS011;7653;48.994;9.212;2023-08-06T01:23:16;5.20;;;4.47;;
15104;SDS011;7653;48.994;9.212;2023-08-06T01:25:49;4.57;;;4.17;;
15104;SDS011;7653;48.994;9.212;2023-08-06T01:28:18;7.27;;;4.67;;
15104;SDS011;7653;48.994;9.212;2023-08-06T01:30:54;6.97;;;4.30;;
15104;SDS011;7653;48.994;9.212;2023-08-06T01:33:21;5.07;;;4.57;;
15104;SDS011;7653;48.994;9.212;2023-08-06T01:35:48;5.07;;;4.00;;
15104;SDS011;7653;48.994;9.212;2023-08-06T01:38:15;7.47;;;4.40;;
15104;SDS011;7653;48.994;9.212;2023-08-06T01:40:41;6.30;;;5.10;;
15104;SDS011;7653;48.994;9.212;2023-08-06T01:43:06;7.77;;;4.50;;
15104;SDS011;7653;48.994;9.212;2023-08-06T01:45:32;5.37;;;4.43;;
15104;SDS011;7653;48.994;9.212;2023-08-06T01:47:58;5.17;;;4.67;;
15104;SDS011;7653;48.994;9.212;2023-08-06T01:50:23;5.43;;;4.93;;
15104;SDS011;7653;48.994;9.212;2023-08-06T01:52:49;6.97;;;4.83;;
15104;SDS011;7653;48.994;9.212;2023-08-06T01:55:15;6.17;;;4.90;;
15104;SDS011;7653;48.994;9.212;2023-08-06T01:57:40;6.60;;;5.40;;
15104;SDS011;7653;48.994;9.212;2023-08-06T02:00:06;6.50;;;5.70;;
15104;SDS011;7653;48.994;9.212;2023-08-06T02:02:32;6.20;;;5.60;;
15104;SDS011;7653;48.994;9.212;2023-08-06T02:04:58;6.67;;;5.80;;
15104;SDS011;7653;48.994;9.212;2023-08-06T02:07:24;8.00;;;6.00;;
15104;SDS011;7653;48.994;9.212;2023-08-06T02:09:50;7.67;;;6.00;;
15104;SDS011;7653;48.994;9.212;2023-08-06T02:12:15;7.50;;;6.00;;
15104;SDS011;7653;48.994;9.212;2023-08-06T02:14:41;8.13;;;6.43;;
15104;SDS011;7653;48.994;9.212;2023-08-06T02:17:06;7.07;;;6.30;;
15104;SDS011;7653;48.994;9.212;2023-08-06T02:19:32;8.03;;;6.20;;
15104;SDS011;7653;48.994;9.212;2023-08-06T02:21:58;8.80;;;6.43;;
15104;SDS011;7653;48.994;9.212;2023-08-06T02:24:24;7.40;;;6.53;;
15104;SDS011;7653;48.994;9.212;2023-08-06T02:26:49;8.73;;;6.30;;
15104;SDS011;7653;48.994;9.212;2023-08-06T02:29:16;8.77;;;6.50;;
15104;SDS011;7653;48.994;9.212;2023-08-06T02:31:42;7.10;;;6.40;;
15104;SDS011;7653;48.994;9.212;2023-08-06T02:34:08;7.50;;;6.70;;
15104;SDS011;7653;48.994;9.212;2023-08-06T02:36:33;10.40;;;7.93;;
15104;SDS011;7653;48.994;9.212;2023-08-06T02:38:59;7.90;;;6.67;;
15104;SDS011;7653;48.994;9.212;2023-08-06T02:41:24;9.23;;;6.67;;
15104;SDS011;7653;48.994;9.212;2023-08-06T02:43:50;6.80;;;6.00;;
15104;SDS011;7653;48.994;9.212;2023-08-06T02:46:17;6.50;;;5.87;;
15104;SDS011;7653;48.994;9.212;2023-08-06T02:48:42;6.30;;;5.70;;
15104;SDS011;7653;48.994;9.212;2023-08-06T02:51:08;6.67;;;6.00;;
15104;SDS011;7653;48.994;9.212;2023-08-06T02:53:34;5.43;;;4.90;;
15104;SDS011;7653;48.994;9.212;2023-08-06T02:55:59;5.93;;;5.20;;
15104;SDS011;7653;48.994;9.212;2023-08-06T02:58:25;7.60;;;4.80;;
15104;SDS011;7653;48.994;9.212;2023-08-06T03:01:00;6.87;;;5.10;;
15104;SDS011;7653;48.994;9.212;2023-08-06T03:03:30;7.33;;;5.57;;
15104;SDS011;7653;48.994;9.212;2023-08-06T03:05:56;5.10;;;4.60;;
15104;SDS011;7653;48.994;9.212;2023-08-06T03:08:22;5.07;;;4.57;;
15104;SDS011;7653;48.994;9.212;2023-08-06T03:10:48;4.50;;;3.93;;
15104;SDS011;7653;48.994;9.212;2023-08-06T03:13:15;7.13;;;4.13;;
15104;SDS011;7653;48.994;9.212;2023-08-06T03:15:42;5.07;;;4.13;;
15104;SDS011;7653;48.994;9.212;2023-08-06T03:18:07;4.47;;;3.93;;
15104;SDS011;7653;48.994;9.212;2023-08-06T03:20:33;3.60;;;3.30;;
15104;SDS011;7653;48.994;9.212;2023-08-06T03:22:59;5.77;;;3.80;;
15104;SDS011;7653;48.994;9.212;2023-08-06T03:25:25;5.10;;;3.50;;
15104;SDS011;7653;48.994;9.212;2023-08-06T03:27:50;4.20;;;3.70;;
15104;SDS011;7653;48.994;9.212;2023-08-06T03:30:16;5.57;;;3.87;;
15104;SDS011;7653;48.994;9.212;2023-08-06T03:32:42;4.47;;;3.43;;
15104;SDS011;7653;48.994;9.212;2023-08-06T03:35:08;6.17;;;3.90;;
15104;SDS011;7653;48.994;9.212;2023-08-06T03:37:33;5.03;;;3.97;;
15104;SDS011;7653;48.994;9.212;2023-08-06T03:39:59;4.70;;;3.80;;
15104;SDS011;7653;48.994;9.212;2023-08-06T03:42:24;5.23;;;3.87;;
15104;SDS011;7653;48.994;9.212;2023-08-06T03:44:50;5.57;;;3.80;;
15104;SDS011;7653;48.994;9.212;2023-08-06T03:47:16;10.10;;;4.27;;
15104;SDS011;7653;48.994;9.212;2023-08-06T03:49:41;5.13;;;3.80;;
15104;SDS011;7653;48.994;9.212;2023-08-06T03:52:08;4.60;;;3.77;;
15104;SDS011;7653;48.994;9.212;2023-08-06T03:54:34;4.13;;;3.67;;
15104;SDS011;7653;48.994;9.212;2023-08-06T03:56:59;5.80;;;4.10;;
15104;SDS011;7653;48.994;9.212;2023-08-06T03:59:25;4.07;;;3.77;;
15104;SDS011;7653;48.994;9.212;2023-08-06T04:01:51;5.20;;;3.70;;
15104;SDS011;7653;48.994;9.212;2023-08-06T04:04:16;4.40;;;3.80;;
15104;SDS011;7653;48.994;9.212;2023-08-06T04:06:42;4.97;;;3.70;;
15104;SDS011;7653;48.994;9.212;2023-08-06T04:09:07;4.53;;;3.90;;
15104;SDS011;7653;48.994;9.212;2023-08-06T04:11:33;6.17;;;3.50;;
15104;SDS011;7653;48.994;9.212;2023-08-06T04:13:59;5.23;;;3.27;;
15104;SDS011;7653;48.994;9.212;2023-08-06T04:16:24;5.37;;;3.03;;
15104;SDS011;7653;48.994;9.212;2023-08-06T04:18:51;5.57;;;3.03;;
15104;SDS011;7653;48.994;9.212;2023-08-06T04:21:18;4.97;;;2.77;;
15104;SDS011;7653;48.994;9.212;2023-08-06T04:23:44;4.83;;;2.50;;
15104;SDS011;7653;48.994;9.212;2023-08-06T04:26:09;4.83;;;2.60;;
15104;SDS011;7653;48.994;9.212;2023-08-06T04:28:35;3.03;;;2.47;;
15104;SDS011;7653;48.994;9.212;2023-08-06T04:31:01;4.00;;;2.47;;
15104;SDS011;7653;48.994;9.212;2023-08-06T04:33:26;6.20;;;2.47;;
15104;SDS011;7653;48.994;9.212;2023-08-06T04:35:55;3.80;;;2.70;;
15104;SDS011;7653;48.994;9.212;2023-08-06T04:38:22;3.03;;;2.13;;
15104;SDS011;7653;48.994;9.212;2023-08-06T04:40:49;4.67;;;2.80;;
15104;SDS011;7653;48.994;9.212;2023-08-06T04:43:14;4.57;;;2.50;;
15104;SDS011;7653;48.994;9.212;2023-08-06T04:45:45;4.53;;;2.33;;
15104;SDS011;7653;48.994;9.212;2023-08-06T04:48:14;3.97;;;2.37;;
15104;SDS011;7653;48.994;9.212;2023-08-06T04:50:44;4.43;;;2.50;;
15104;SDS011;7653;48.994;9.212;2023-08-06T04:53:10;4.33;;;2.50;;
15104;SDS011;7653;48.994;9.212;2023-08-06T04:55:36;3.50;;;2.33;;
15104;SDS011;7653;48.994;9.212;2023-08-06T04:58:01;5.73;;;2.10;;
15104;SDS011;7653;48.994;9.212;2023-08-06T05:00:27;3.07;;;2.00;;
15104;SDS011;7653;48.994;9.212;2023-08-06T05:02:53;3.73;;;1.73;;
15104;SDS011;7653;48.994;9.212;2023-08-06T05:05:18;3.00;;;1.57;;
15104;SDS011;7653;48.994;9.212;2023-08-06T05:07:45;3.90;;;1.70;;
15104;SDS011;7653;48.994;9.212;2023-08-06T05:10:13;2.40;;;1.60;;
15104;SDS011;7653;48.994;9.212;2023-08-06T05:12:39;2.90;;;1.70;;
15104;SDS011;7653;48.994;9.212;2023-08-06T05:15:05;3.07;;;1.30;;
15104;SDS011;7653;48.994;9.212;2023-08-06T05:17:31;3.20;;;1.70;;
15104;SDS011;7653;48.994;9.212;2023-08-06T05:19:56;2.87;;;1.23;;
15104;SDS011;7653;48.994;9.212;2023-08-06T05:22:22;2.93;;;1.40;;
15104;SDS011;7653;48.994;9.212;2023-08-06T05:24:48;3.77;;;1.27;;
15104;SDS011;7653;48.994;9.212;2023-08-06T05:27:13;1.63;;;1.20;;
15104;SDS011;7653;48.994;9.212;2023-08-06T05:29:39;2.67;;;1.27;;
15104;SDS011;7653;48.994;9.212;2023-08-06T05:32:05;2.90;;;1.30;;
15104;SDS011;7653;48.994;9.212;2023-08-06T05:34:30;2.33;;;1.20;;
15104;SDS011;7653;48.994;9.212;2023-08-06T05:36:56;2.60;;;1.23;;
15104;SDS011;7653;48.994;9.212;2023-08-06T05:39:22;2.93;;;1.30;;
15104;SDS011;7653;48.994;9.212;2023-08-06T05:41:47;2.03;;;1.10;;
15104;SDS011;7653;48.994;9.212;2023-08-06T05:44:13;3.60;;;1.30;;
15104;SDS011;7653;48.994;9.212;2023-08-06T05:46:38;3.10;;;1.20;;
15104;SDS011;7653;48.994;9.212;2023-08-06T05:49:04;1.80;;;1.20;;
15104;SDS011;7653;48.994;9.212;2023-08-06T05:51:30;1.57;;;1.03;;
15104;SDS011;7653;48.994;9.212;2023-08-06T05:53:55;2.07;;;1.10;;
15104;SDS011;7653;48.994;9.212;2023-08-06T05:56:21;4.40;;;0.90;;
15104;SDS011;7653;48.994;9.212;2023-08-06T05:58:47;2.50;;;1.40;;
15104;SDS011;7653;48.994;9.212;2023-08-06T06:01:12;2.87;;;1.20;;
15104;SDS011;7653;48.994;9.212;2023-08-06T06:03:38;2.33;;;0.97;;
15104;SDS011;7653;48.994;9.212;2023-08-06T06:06:04;1.43;;;0.93;;
15104;SDS011;7653;48.994;9.212;2023-08-06T06:08:29;3.60;;;1.30;;
15104;SDS011;7653;48.994;9.212;2023-08-06T06:10:55;1.67;;;1.27;;
15104;SDS011;7653;48.994;9.212;2023-08-06T06:13:21;2.53;;;0.80;;
15104;SDS011;7653;48.994;9.212;2023-08-06T06:15:46;1.63;;;0.80;;
15104;SDS011;7653;48.994;9.212;2023-08-06T06:18:13;2.57;;;1.00;;
15104;SDS011;7653;48.994;9.212;2023-08-06T06:20:38;1.67;;;1.10;;
15104;SDS011;7653;48.994;9.212;2023-08-06T06:23:04;2.70;;;1.07;;
15104;SDS011;7653;48.994;9.212;2023-08-06T06:25:30;2.23;;;1.07;;
15104;SDS011;7653;48.994;9.212;2023-08-06T06:27:55;2.10;;;0.90;;
15104;SDS011;7653;48.994;9.212;2023-08-06T06:30:21;2.07;;;1.20;;
15104;SDS011;7653;48.994;9.212;2023-08-06T06:32:46;3.13;;;1.10;;
15104;SDS011;7653;48.994;9.212;2023-08-06T06:35:12;1.67;;;0.90;;
15104;SDS011;7653;48.994;9.212;2023-08-06T06:37:38;2.87;;;1.10;;
15104;SDS011;7653;48.994;9.212;2023-08-06T06:40:03;1.20;;;1.00;;
15104;SDS011;7653;48.994;9.212;2023-08-06T06:42:29;1.67;;;0.87;;
15104;SDS011;7653;48.994;9.212;2023-08-06T06:44:55;0.90;;;0.90;;
15104;SDS011;7653;48.994;9.212;2023-08-06T06:47:21;1.73;;;0.90;;
15104;SDS011;7653;48.994;9.212;2023-08-06T06:49:46;2.90;;;1.00;;
15104;SDS011;7653;48.994;9.212;2023-08-06T06:52:12;3.07;;;0.90;;
15104;SDS011;7653;48.994;9.212;2023-08-06T06:54:38;1.83;;;1.00;;
15104;SDS011;7653;48.994;9.212;2023-08-06T06:57:04;2.03;;;1.20;;
15104;SDS011;7653;48.994;9.212;2023-08-06T06:59:31;1.63;;;1.17;;
15104;SDS011;7653;48.994;9.212;2023-08-06T07:01:56;3.10;;;1.20;;
15104;SDS011;7653;48.994;9.212;2023-08-06T07:04:22;0.90;;;0.90;;
15104;SDS011;7653;48.994;9.212;2023-08-06T07:06:47;2.67;;;0.73;;
15104;SDS011;7653;48.994;9.212;2023-08-06T07:09:13;2.00;;;0.80;;
15104;SDS011;7653;48.994;9.212;2023-08-06T07:11:38;2.77;;;0.90;;
15104;SDS011;7653;48.994;9.212;2023-08-06T07:14:04;1.60;;;1.00;;
15104;SDS011;7653;48.994;9.212;2023-08-06T07:16:30;1.17;;;0.90;;
15104;SDS011;7653;48.994;9.212;2023-08-06T07:18:55;1.17;;;0.93;;
15104;SDS011;7653;48.994;9.212;2023-08-06T07:21:21;1.90;;;0.77;;
15104;SDS011;7653;48.994;9.212;2023-08-06T07:23:47;1.17;;;0.70;;
15104;SDS011;7653;48.994;9.212;2023-08-06T07:26:14;0.97;;;0.70;;
15104;SDS011;7653;48.994;9.212;2023-08-06T07:28:41;0.63;;;0.60;;
15104;SDS011;7653;48.994;9.212;2023-08-06T07:31:07;0.90;;;0.60;;
15104;SDS011;7653;48.994;9.212;2023-08-06T07:33:32;1.93;;;0.90;;
15104;SDS011;7653;48.994;9.212;2023-08-06T07:35:58;0.50;;;0.50;;
15104;SDS011;7653;48.994;9.212;2023-08-06T07:38:23;1.00;;;0.70;;
15104;SDS011;7653;48.994;9.212;2023-08-06T07:40:49;1.47;;;0.80;;
15104;SDS011;7653;48.994;9.212;2023-08-06T07:43:15;0.90;;;0.60;;
15104;SDS011;7653;48.994;9.212;2023-08-06T07:45:41;1.30;;;0.60;;
15104;SDS011;7653;48.994;9.212;2023-08-06T07:48:06;3.67;;;0.70;;
15104;SDS011;7653;48.994;9.212;2023-08-06T07:50:32;2.53;;;0.70;;
15104;SDS011;7653;48.994;9.212;2023-08-06T07:52:57;0.77;;;0.60;;
15104;SDS011;7653;48.994;9.212;2023-08-06T07:55:23;2.07;;;0.53;;
15104;SDS011;7653;48.994;9.212;2023-08-06T07:57:49;1.67;;;0.63;;
15104;SDS011;7653;48.994;9.212;2023-08-06T08:00:14;0.83;;;0.70;;
15104;SDS011;7653;48.994;9.212;2023-08-06T08:02:41;1.27;;;0.80;;
15104;SDS011;7653;48.994;9.212;2023-08-06T08:05:13;1.27;;;0.50;;
15104;SDS011;7653;48.994;9.212;2023-08-06T08:07:41;0.63;;;0.50;;
15104;SDS011;7653;48.994;9.212;2023-08-06T08:10:07;0.73;;;0.40;;
15104;SDS011;7653;48.994;9.212;2023-08-06T08:12:32;0.40;;;0.40;;
15104;SDS011;7653;48.994;9.212;2023-08-06T08:14:58;2.10;;;0.50;;
15104;SDS011;7653;48.994;9.212;2023-08-06T08:17:24;0.30;;;0.30;;
15104;SDS011;7653;48.994;9.212;2023-08-06T08:19:49;0.67;;;0.50;;
15104;SDS011;7653;48.994;9.212;2023-08-06T08:22:15;2.43;;;0.40;;
15104;SDS011;7653;48.994;9.212;2023-08-06T08:24:40;0.30;;;0.30;;
15104;SDS011;7653;48.994;9.212;2023-08-06T08:27:06;0.30;;;0.30;;
15104;SDS011;7653;48.994;9.212;2023-08-06T08:29:32;0.47;;;0.20;;
15104;SDS011;7653;48.994;9.212;2023-08-06T08:31:57;0.67;;;0.50;;
15104;SDS011;7653;48.994;9.212;2023-08-06T08:34:23;0.30;;;0.30;;
15104;SDS011;7653;48.994;9.212;2023-08-06T08:36:49;1.17;;;0.40;;
15104;SDS011;7653;48.994;9.212;2023-08-06T08:39:15;0.40;;;0.20;;
15104;SDS011;7653;48.994;9.212;2023-08-06T08:41:40;0.23;;;0.20;;
15104;SDS011;7653;48.994;9.212;2023-08-06T08:44:10;0.30;;;0.20;;
15104;SDS011;7653;48.994;9.212;2023-08-06T08:46:37;0.50;;;0.40;;
15104;SDS011;7653;48.994;9.212;2023-08-06T08:49:05;0.10;;;0.10;;
15104;SDS011;7653;48.994;9.212;2023-08-06T08:51:32;0.53;;;0.20;;
15104;SDS011;7653;48.994;9.212;2023-08-06T08:53:59;0.10;;;0.10;;
15104;SDS011;7653;48.994;9.212;2023-08-06T08:56:27;0.10;;;0.10;;
15104;SDS011;7653;48.994;9.212;2023-08-06T08:58:53;0.23;;;0.23;;
15104;SDS011;7653;48.994;9.212;2023-08-06T09:01:20;0.00;;;0.00;;
15104;SDS011;7653;48.994;9.212;2023-08-06T09:03:47;0.43;;;0.43;;
15104;SDS011;7653;48.994;9.212;2023-08-06T09:06:13;0.00;;;0.00;;
15104;SDS011;7653;48.994;9.212;2023-08-06T09:08:47;2.13;;;0.33;;
15104;SDS011;7653;48.994;9.212;2023-08-06T09:11:44;0.00;;;0.00;;
15104;SDS011;7653;48.994;9.212;2023-08-06T09:14:10;0.00;;;0.00;;
15104;SDS011;7653;48.994;9.212;2023-08-06T09:16:36;1.33;;;0.10;;
15104;SDS011;7653;48.994;9.212;2023-08-06T09:19:12;0.20;;;0.10;;
15104;SDS011;7653;48.994;9.212;2023-08-06T09:21:40;0.10;;;0.00;;
15104;SDS011;7653;48.994;9.212;2023-08-06T09:24:07;0.00;;;0.00;;
15104;SDS011;7653;48.994;9.212;2023-08-06T09:26:34;0.00;;;0.00;;
15104;SDS011;7653;48.994;9.212;2023-08-06T09:29:01;0.00;;;0.00;;
15104;SDS011;7653;48.994;9.212;2023-08-06T09:31:42;0.30;;;0.10;;
15104;SDS011;7653;48.994;9.212;2023-08-06T09:34:11;0.00;;;0.00;;
15104;SDS011;7653;48.994;9.212;2023-08-06T09:36:53;0.10;;;0.10;;
15104;SDS011;7653;48.994;9.212;2023-08-06T09:39:20;0.10;;;0.10;;
15104;SDS011;7653;48.994;9.212;2023-08-06T09:41:47;0.00;;;0.00;;
15104;SDS011;7653;48.994;9.212;2023-08-06T09:44:17;0.20;;;0.10;;
15104;SDS011;7653;48.994;9.212;2023-08-06T09:46:47;0.00;;;0.00;;
15104;SDS011;7653;48.994;9.212;2023-08-06T09:49:14;0.13;;;0.13;;
15104;SDS011;7653;48.994;9.212;2023-08-06T09:51:40;2.17;;;0.20;;
15104;SDS011;7653;48.994;9.212;2023-08-06T09:54:07;1.53;;;0.20;;
15104;SDS011;7653;48.994;9.212;2023-08-06T09:56:37;0.40;;;0.20;;
15104;SDS011;7653;48.994;9.212;2023-08-06T09:59:06;0.10;;;0.10;;
15104;SDS011;7653;48.994;9.212;2023-08-06T10:01:32;0.10;;;0.10;;
15104;SDS011;7653;48.994;9.212;2023-08-06T10:03:59;0.00;;;0.00;;
15104;SDS011;7653;48.994;9.212;2023-08-06T10:06:28;0.30;;;0.20;;
15104;SDS011;7653;48.994;9.212;2023-08-06T10:08:54;0.10;;;0.10;;
15104;SDS011;7653;48.994;9.212;2023-08-06T10:11:21;0.10;;;0.10;;
15104;SDS011;7653;48.994;9.212;2023-08-06T10:13:49;0.00;;;0.00;;
15104;SDS011;7653;48.994;9.212;2023-08-06T10:16:17;0.00;;;0.00;;
15104;SDS011;7653;48.994;9.212;2023-08-06T10:18:44;0.00;;;0.00;;
15104;SDS011;7653;48.994;9.212;2023-08-06T10:21:12;0.00;;;0.00;;
15104;SDS011;7653;48.994;9.212;2023-08-06T10:23:39;0.20;;;0.10;;
15104;SDS011;7653;48.994;9.212;2023-08-06T10:26:06;0.10;;;0.10;;
15104;SDS011;7653;48.994;9.212;2023-08-06T10:28:38;1.40;;;0.20;;
15104;SDS011;7653;48.994;9.212;2023-08-06T10:31:05;0.30;;;0.30;;
15104;SDS011;7653;48.994;9.212;2023-08-06T10:33:40;0.20;;;0.20;;
15104;SDS011;7653;48.994;9.212;2023-08-06T10:36:10;0.30;;;0.20;;
15104;SDS011;7653;48.994;9.212;2023-08-06T10:38:55;0.30;;;0.30;;
15104;SDS011;7653;48.994;9.212;2023-08-06T10:41:23;0.10;;;0.10;;
15104;SDS011;7653;48.994;9.212;2023-08-06T10:44:05;0.10;;;0.10;;
15104;SDS011;7653;48.994;9.212;2023-08-06T10:46:34;0.30;;;0.30;;
15104;SDS011;7653;48.994;9.212;2023-08-06T10:49:00;0.10;;;0.00;;
15104;SDS011;7653;48.994;9.212;2023-08-06T10:51:27;0.00;;;0.00;;
15104;SDS011;7653;48.994;9.212;2023-08-06T10:53:53;0.20;;;0.20;;
15104;SDS011;7653;48.994;9.212;2023-08-06T10:56:22;0.20;;;0.10;;
15104;SDS011;7653;48.994;9.212;2023-08-06T10:58:49;0.30;;;0.30;;
15104;SDS011;7653;48.994;9.212;2023-08-06T11:01:17;0.10;;;0.10;;
15104;SDS011;7653;48.994;9.212;2023-08-06T11:03:43;0.30;;;0.20;;
15104;SDS011;7653;48.994;9.212;2023-08-06T11:06:10;0.20;;;0.20;;
15104;SDS011;7653;48.994;9.212;2023-08-06T11:08:46;0.30;;;0.30;;
15104;SDS011;7653;48.994;9.212;2023-08-06T11:11:14;0.10;;;0.10;;
15104;SDS011;7653;48.994;9.212;2023-08-06T11:16:07;0.30;;;0.30;;
15104;SDS011;7653;48.994;9.212;2023-08-06T11:18:33;0.50;;;0.50;;
15104;SDS011;7653;48.994;9.212;2023-08-06T11:20:59;0.23;;;0.23;;
15104;SDS011;7653;48.994;9.212;2023-08-06T11:23:29;0.43;;;0.37;;
15104;SDS011;7653;48.994;9.212;2023-08-06T11:25:58;0.47;;;0.47;;
15104;SDS011;7653;48.994;9.212;2023-08-06T11:28:24;0.30;;;0.30;;
15104;SDS011;7653;48.994;9.212;2023-08-06T11:30:50;0.27;;;0.27;;
15104;SDS011;7653;48.994;9.212;2023-08-06T11:33:23;0.93;;;0.60;;
15104;SDS011;7653;48.994;9.212;2023-08-06T11:35:50;0.37;;;0.30;;
15104;SDS011;7653;48.994;9.212;2023-08-06T11:38:16;0.80;;;0.47;;
15104;SDS011;7653;48.994;9.212;2023-08-06T11:40:47;0.97;;;0.80;;
15104;SDS011;7653;48.994;9.212;2023-08-06T11:43:13;0.57;;;0.57;;
15104;SDS011;7653;48.994;9.212;2023-08-06T11:45:39;0.93;;;0.80;;
15104;SDS011;7653;48.994;9.212;2023-08-06T11:48:05;0.43;;;0.40;;
15104;SDS011;7653;48.994;9.212;2023-08-06T11:50:36;0.90;;;0.70;;
15104;SDS011;7653;48.994;9.212;2023-08-06T11:53:06;0.70;;;0.70;;
15104;SDS011;7653;48.994;9.212;2023-08-06T11:55:32;0.80;;;0.80;;
15104;SDS011;7653;48.994;9.212;2023-08-06T11:57:58;1.27;;;0.97;;
15104;SDS011;7653;48.994;9.212;2023-08-06T12:00:28;0.97;;;0.87;;
15104;SDS011;7653;48.994;9.212;2023-08-06T12:02:54;1.23;;;0.80;;
15104;SDS011;7653;48.994;9.212;2023-08-06T12:05:21;0.70;;;0.70;;
15104;SDS011;7653;48.994;9.212;2023-08-06T12:07:57;1.20;;;0.40;;
15104;SDS011;7653;48.994;9.212;2023-08-06T12:10:25;1.33;;;1.17;;
15104;SDS011;7653;48.994;9.212;2023-08-06T12:12:51;0.70;;;0.63;;
15104;SDS011;7653;48.994;9.212;2023-08-06T12:15:18;1.27;;;0.90;;
15104;SDS011;7653;48.994;9.212;2023-08-06T12:17:44;1.20;;;0.90;;
15104;SDS011;7653;48.994;9.212;2023-08-06T12:20:09;1.90;;;1.50;;
15104;SDS011;7653;48.994;9.212;2023-08-06T12:22:35;1.60;;;1.20;;
15104;SDS011;7653;48.994;9.212;2023-08-06T12:25:07;2.40;;;1.80;;
15104;SDS011;7653;48.994;9.212;2023-08-06T12:27:37;2.27;;;1.50;;
15104;SDS011;7653;48.994;9.212;2023-08-06T12:30:04;1.97;;;1.57;;
15104;SDS011;7653;48.994;9.212;2023-08-06T12:32:30;3.77;;;1.50;;
15104;SDS011;7653;48.994;9.212;2023-08-06T12:34:57;3.97;;;1.80;;
15104;SDS011;7653;48.994;9.212;2023-08-06T12:37:23;3.90;;;1.30;;
15104;SDS011;7653;48.994;9.212;2023-08-06T12:39:50;1.70;;;1.30;;
15104;SDS011;7653;48.994;9.212;2023-08-06T12:42:16;3.60;;;1.90;;
15104;SDS011;7653;48.994;9.212;2023-08-06T12:44:42;3.53;;;1.70;;
15104;SDS011;7653;48.994;9.212;2023-08-06T12:47:08;2.53;;;1.93;;
15104;SDS011;7653;48.994;9.212;2023-08-06T12:49:34;2.03;;;1.33;;
15104;SDS011;7653;48.994;9.212;2023-08-06T12:52:00;3.17;;;1.97;;
15104;SDS011;7653;48.994;9.212;2023-08-06T12:54:26;2.77;;;1.53;;
15104;SDS011;7653;48.994;9.212;2023-08-06T12:56:52;1.97;;;0.90;;
15104;SDS011;7653;48.994;9.212;2023-08-06T12:59:18;3.87;;;1.67;;
15104;SDS011;7653;48.994;9.212;2023-08-06T13:01:45;1.83;;;1.40;;
15104;SDS011;7653;48.994;9.212;2023-08-06T13:04:11;1.80;;;1.17;;
15104;SDS011;7653;48.994;9.212;2023-08-06T13:06:37;3.60;;;1.80;;
15104;SDS011;7653;48.994;9.212;2023-08-06T13:09:08;2.70;;;1.60;;
15104;SDS011;7653;48.994;9.212;2023-08-06T13:11:35;2.33;;;1.77;;
15104;SDS011;7653;48.994;9.212;2023-08-06T13:14:09;1.37;;;1.10;;
15104;SDS011;7653;48.994;9.212;2023-08-06T13:16:36;2.73;;;1.63;;
15104;SDS011;7653;48.994;9.212;2023-08-06T13:19:06;2.63;;;1.50;;
15104;SDS011;7653;48.994;9.212;2023-08-06T13:24:15;2.37;;;1.10;;
15104;SDS011;7653;48.994;9.212;2023-08-06T13:26:40;2.73;;;1.20;;
15104;SDS011;7653;48.994;9.212;2023-08-06T13:29:06;2.73;;;1.30;;
15104;SDS011;7653;48.994;9.212;2023-08-06T13:31:32;1.80;;;1.10;;
15104;SDS011;7653;48.994;9.212;2023-08-06T13:33:58;1.40;;;1.27;;
15104;SDS011;7653;48.994;9.212;2023-08-06T13:36:27;5.60;;;1.50;;
15104;SDS011;7653;48.994;9.212;2023-08-06T13:38:53;2.30;;;1.40;;
15104;SDS011;7653;48.994;9.212;2023-08-06T13:41:19;1.43;;;0.87;;
15104;SDS011;7653;48.994;9.212;2023-08-06T13:43:44;2.37;;;0.70;;
15104;SDS011;7653;48.994;9.212;2023-08-06T13:46:10;1.03;;;0.87;;
15104;SDS011;7653;48.994;9.212;2023-08-06T13:48:44;4.50;;;2.07;;
15104;SDS011;7653;48.994;9.212;2023-08-06T13:51:11;1.10;;;1.00;;
15104;SDS011;7653;48.994;9.212;2023-08-06T13:53:37;1.47;;;1.00;;
15104;SDS011;7653;48.994;9.212;2023-08-06T13:56:04;2.50;;;1.43;;
15104;SDS011;7653;48.994;9.212;2023-08-06T13:58:31;2.87;;;1.20;;
15104;SDS011;7653;48.994;9.212;2023-08-06T14:00:56;1.37;;;1.23;;
15104;SDS011;7653;48.994;9.212;2023-08-06T14:03:22;2.97;;;1.03;;
15104;SDS011;7653;48.994;9.212;2023-08-06T14:05:48;1.20;;;0.70;;
15104;SDS011;7653;48.994;9.212;2023-08-06T14:08:15;1.10;;;0.90;;
15104;SDS011;7653;48.994;9.212;2023-08-06T14:10:43;0.70;;;0.70;;
15104;SDS011;7653;48.994;9.212;2023-08-06T14:13:09;1.20;;;0.70;;
15104;SDS011;7653;48.994;9.212;2023-08-06T14:15:35;0.80;;;0.80;;
15104;SDS011;7653;48.994;9.212;2023-08-06T14:18:01;1.33;;;0.40;;
15104;SDS011;7653;48.994;9.212;2023-08-06T14:20:27;0.40;;;0.37;;
15104;SDS011;7653;48.994;9.212;2023-08-06T14:22:53;0.50;;;0.47;;
15104;SDS011;7653;48.994;9.212;2023-08-06T14:25:19;0.20;;;0.20;;
15104;SDS011;7653;48.994;9.212;2023-08-06T14:27:45;1.80;;;1.00;;
15104;SDS011;7653;48.994;9.212;2023-08-06T14:30:11;1.90;;;0.90;;
15104;SDS011;7653;48.994;9.212;2023-08-06T14:32:36;0.20;;;0.20;;
15104;SDS011;7653;48.994;9.212;2023-08-06T14:35:02;0.37;;;0.37;;
15104;SDS011;7653;48.994;9.212;2023-08-06T14:37:28;0.30;;;0.30;;
15104;SDS011;7653;48.994;9.212;2023-08-06T14:39:54;0.63;;;0.60;;
15104;SDS011;7653;48.994;9.212;2023-08-06T14:42:19;1.37;;;0.70;;
15104;SDS011;7653;48.994;9.212;2023-08-06T14:44:45;1.50;;;0.90;;
15104;SDS011;7653;48.994;9.212;2023-08-06T14:47:11;1.17;;;0.90;;
15104;SDS011;7653;48.994;9.212;2023-08-06T14:49:37;0.80;;;0.80;;
15104;SDS011;7653;48.994;9.212;2023-08-06T14:52:03;2.00;;;0.90;;
15104;SDS011;7653;48.994;9.212;2023-08-06T14:54:29;1.13;;;0.53;;
15104;SDS011;7653;48.994;9.212;2023-08-06T14:56:55;0.77;;;0.60;;
15104;SDS011;7653;48.994;9.212;2023-08-06T14:59:21;0.80;;;0.80;;
15104;SDS011;7653;48.994;9.212;2023-08-06T15:01:47;1.10;;;0.70;;
15104;SDS011;7653;48.994;9.212;2023-08-06T15:04:13;1.17;;;0.87;;
15104;SDS011;7653;48.994;9.212;2023-08-06T15:06:39;2.00;;;0.73;;
15104;SDS011;7653;48.994;9.212;2023-08-06T15:09:04;1.80;;;0.70;;
15104;SDS011;7653;48.994;9.212;2023-08-06T15:11:30;0.90;;;0.90;;